Time;durP1;ratioP1;P1;durP2;ratioP2;P2;SDS_P1;SDS_P2;PMS_P1;PMS_P2;Temp;Humidity;BMP_temperature;BMP_pressure;BME280_temperature;BME280_humidity;BME280_pressure;Samples;Min_cycle;Max_cycle;Signal;HPM_P1;HPM_P2
2022/05/25 00:01:15;;;;;;;2.33;1.63;;;10.70;99.90;;;;;;5053076;28;20205;-63
2022/05/25 00:03:42;;;;;;;2.33;1.47;;;10.70;99.90;;;;;;5052710;28;20295;-63
2022/05/25 00:06:11;;;;;;;5.47;1.93;;;10.60;99.90;;;;;;5052534;28;20233;-63
2022/05/25 00:08:40;;;;;;;2.87;1.73;;;10.60;99.90;;;;;;5052571;28;20209;-63
2022/05/25 00:11:07;;;;;;;3.97;1.90;;;10.60;99.90;;;;;;5052916;28;20210;-63
2022/05/25 00:13:36;;;;;;;3.20;1.60;;;10.60;99.90;;;;;;5052939;28;20263;-63
2022/05/25 00:16:02;;;;;;;3.80;1.67;;;10.50;99.90;;;;;;5052054;28;20307;-63
2022/05/25 00:18:30;;;;;;;2.20;1.73;;;10.50;99.90;;;;;;5052778;28;20209;-63
2022/05/25 00:20:56;;;;;;;5.43;1.70;;;10.40;99.90;;;;;;5052367;28;20213;-65
2022/05/25 00:23:22;;;;;;;3.53;2.00;;;10.40;99.90;;;;;;5052393;28;20221;-63
2022/05/25 00:25:49;;;;;;;3.77;1.63;;;10.40;99.90;;;;;;5052223;28;20237;-63
2022/05/25 00:28:17;;;;;;;2.70;1.43;;;10.40;99.90;;;;;;5052451;28;20221;-63
2022/05/25 00:30:47;;;;;;;3.70;2.03;;;10.40;99.90;;;;;;5052490;28;20211;-63
2022/05/25 00:33:14;;;;;;;2.27;1.50;;;10.40;99.90;;;;;;5052477;28;20625;-63
2022/05/25 00:35:42;;;;;;;3.23;1.97;;;10.30;99.90;;;;;;5051933;28;20258;-62
2022/05/25 00:38:10;;;;;;;5.00;1.70;;;10.30;99.90;;;;;;5051841;28;20212;-63
2022/05/25 00:40:41;;;;;;;4.87;1.60;;;10.30;99.90;;;;;;5052456;28;20213;-63
2022/05/25 00:43:09;;;;;;;2.87;1.70;;;10.30;99.90;;;;;;5051943;28;20233;-63
2022/05/25 00:45:41;;;;;;;3.33;1.80;;;10.30;99.90;;;;;;5051371;28;20666;-63
2022/05/25 00:48:14;;;;;;;4.97;2.13;;;10.30;99.90;;;;;;5051399;28;20201;-63
2022/05/25 00:53:24;;;;;;;3.37;2.53;;;10.20;99.90;;;;;;5051914;28;20303;-64
2022/05/25 00:55:51;;;;;;;4.87;2.87;;;10.20;99.90;;;;;;5051905;28;20254;-63
2022/05/25 00:58:18;;;;;;;3.80;3.00;;;10.20;99.90;;;;;;5051758;28;20647;-63
2022/05/25 01:00:45;;;;;;;5.20;3.30;;;10.20;99.90;;;;;;5051549;28;20580;-63
2022/05/25 01:03:13;;;;;;;3.97;3.30;;;10.20;99.90;;;;;;5051725;28;20719;-63
2022/05/25 01:05:46;;;;;;;10.83;3.50;;;10.20;99.90;;;;;;5051370;28;20316;-63
2022/05/25 01:08:34;;;;;;;4.13;3.37;;;10.20;99.90;;;;;;5051753;28;20208;-63
2022/05/25 01:11:14;;;;;;;5.10;3.20;;;10.20;99.90;;;;;;5051439;28;20234;-63
2022/05/25 01:13:48;;;;;;;6.27;3.60;;;10.20;99.90;;;;;;5051765;28;20579;-63
2022/05/25 01:16:25;;;;;;;5.90;3.30;;;10.20;99.90;;;;;;5051058;28;20216;-64
2022/05/25 01:19:00;;;;;;;5.47;3.60;;;10.10;99.90;;;;;;5051666;28;20212;-63
2022/05/25 01:21:34;;;;;;;7.50;3.30;;;10.10;99.90;;;;;;5051261;28;20683;-63
2022/05/25 01:24:19;;;;;;;6.93;3.77;;;10.10;99.90;;;;;;5051766;28;20259;-63
2022/05/25 01:27:13;;;;;;;6.33;3.53;;;10.00;99.90;;;;;;5051120;28;20230;-63
2022/05/25 01:29:52;;;;;;;7.37;3.93;;;10.00;99.90;;;;;;5051504;28;20219;-64
2022/05/25 01:32:26;;;;;;;6.87;3.67;;;10.00;99.90;;;;;;5051503;28;20304;-63
2022/05/25 01:34:59;;;;;;;4.33;3.70;;;10.10;99.90;;;;;;5051633;28;20241;-63
2022/05/25 01:37:30;;;;;;;4.37;3.47;;;10.00;99.90;;;;;;5051165;28;20761;-64
2022/05/25 01:40:03;;;;;;;7.30;3.90;;;10.00;99.90;;;;;;5051048;28;20627;-63
2022/05/25 01:42:35;;;;;;;7.57;3.70;;;10.00;99.90;;;;;;5051149;28;20232;-63
2022/05/25 01:45:08;;;;;;;8.27;3.83;;;10.00;99.90;;;;;;5051342;28;20252;-64
2022/05/25 01:47:36;;;;;;;9.63;4.00;;;10.00;99.90;;;;;;5051142;28;20201;-63
2022/05/25 01:50:08;;;;;;;5.53;3.50;;;10.00;99.90;;;;;;5050927;28;20216;-63
2022/05/25 01:52:39;;;;;;;7.73;3.67;;;10.00;99.90;;;;;;5051223;28;20229;-62
2022/05/25 01:55:09;;;;;;;5.27;3.87;;;10.00;99.90;;;;;;5051388;28;20631;-63
2022/05/25 01:57:42;;;;;;;4.97;3.50;;;10.00;99.90;;;;;;5054600;28;20207;-63
2022/05/25 02:00:25;;;;;;;8.70;3.90;;;10.00;99.90;;;;;;5055277;28;20205;-62
2022/05/25 02:05:41;;;;;;;8.40;3.87;;;9.90;99.90;;;;;;5054951;28;20234;-62
2022/05/25 02:08:14;;;;;;;6.23;3.43;;;9.90;99.90;;;;;;5054898;28;20217;-63
2022/05/25 02:10:56;;;;;;;6.93;3.40;;;9.90;99.90;;;;;;5055080;28;20242;-63
2022/05/25 02:13:37;;;;;;;4.87;3.67;;;9.90;99.90;;;;;;5054693;28;20776;-62
2022/05/25 02:16:21;;;;;;;5.53;3.47;;;9.90;99.90;;;;;;5054599;28;20222;-62
2022/05/25 02:18:55;;;;;;;5.10;3.17;;;9.90;99.90;;;;;;5054749;28;20261;-63
2022/05/25 02:21:27;;;;;;;5.57;3.33;;;9.80;99.90;;;;;;5054879;28;20206;-63
2022/05/25 02:23:59;;;;;;;3.97;3.57;;;9.80;99.90;;;;;;5054398;28;20715;-63
2022/05/25 02:26:29;;;;;;;9.67;3.67;;;9.80;99.90;;;;;;5054285;28;20228;-63
2022/05/25 02:29:03;;;;;;;5.13;3.97;;;9.70;99.90;;;;;;5054593;28;20265;-63
2022/05/25 02:31:36;;;;;;;7.03;3.97;;;9.70;99.90;;;;;;5054763;28;20211;-63
2022/05/25 02:34:05;;;;;;;7.67;4.37;;;9.70;99.90;;;;;;5054410;28;20233;-63
2022/05/25 02:36:34;;;;;;;6.20;3.70;;;9.70;99.90;;;;;;5053896;28;20666;-63
2022/05/25 02:39:04;;;;;;;5.30;4.13;;;9.70;99.90;;;;;;5054539;28;20211;-63
2022/05/25 02:41:34;;;;;;;5.30;4.10;;;9.70;99.90;;;;;;5054405;28;20202;-63
2022/05/25 02:44:03;;;;;;;4.83;3.97;;;9.70;99.90;;;;;;5054702;28;20261;-63
2022/05/25 02:46:29;;;;;;;6.70;3.80;;;9.70;99.90;;;;;;5053856;28;20318;-63
2022/05/25 02:48:58;;;;;;;7.80;4.53;;;9.70;99.90;;;;;;5054329;28;20208;-63
2022/05/25 02:51:26;;;;;;;7.10;4.10;;;9.60;99.90;;;;;;5054046;28;20267;-63
2022/05/25 02:53:53;;;;;;;7.23;4.03;;;9.60;99.90;;;;;;5054395;28;20240;-63
2022/05/25 02:56:20;;;;;;;5.77;4.23;;;9.60;99.90;;;;;;5053657;28;20212;-62
2022/05/25 02:58:47;;;;;;;5.57;3.53;;;9.50;99.90;;;;;;5054387;28;20207;-63
2022/05/25 03:01:13;;;;;;;4.93;4.13;;;9.50;99.90;;;;;;5055097;28;20263;-63
2022/05/25 03:03:40;;;;;;;9.43;5.03;;;9.50;99.90;;;;;;5054741;28;20284;-62
2022/05/25 03:06:09;;;;;;;10.87;4.50;;;9.50;99.90;;;;;;5054404;28;20706;-63
2022/05/25 03:08:36;;;;;;;5.03;3.87;;;9.60;99.90;;;;;;5052998;28;20739;-63
2022/05/25 03:11:04;;;;;;;5.77;4.60;;;9.50;99.90;;;;;;5054035;28;20238;-63
2022/05/25 03:13:31;;;;;;;6.87;4.90;;;9.50;99.90;;;;;;5053548;28;20235;-63
2022/05/25 03:15:58;;;;;;;8.23;4.80;;;9.50;99.90;;;;;;5053234;28;20280;-63
2022/05/25 03:18:25;;;;;;;7.77;4.57;;;9.60;99.90;;;;;;5053919;28;20220;-63
2022/05/25 03:20:52;;;;;;;7.97;5.20;;;9.60;99.90;;;;;;5053877;28;20214;-63
2022/05/25 03:23:20;;;;;;;6.43;4.97;;;9.60;99.90;;;;;;5053680;28;20231;-63
2022/05/25 03:25:47;;;;;;;11.53;5.70;;;9.60;99.90;;;;;;5053421;28;20211;-63
2022/05/25 03:28:14;;;;;;;7.50;5.47;;;9.60;99.90;;;;;;5053188;28;20208;-63
2022/05/25 03:30:43;;;;;;;6.80;5.27;;;9.60;99.90;;;;;;5053077;28;20202;-63
2022/05/25 03:33:10;;;;;;;7.87;5.17;;;9.60;99.90;;;;;;5053583;28;20275;-63
2022/05/25 03:35:38;;;;;;;8.77;5.50;;;9.60;99.90;;;;;;5053129;28;20211;-63
2022/05/25 03:38:05;;;;;;;7.07;5.57;;;9.60;99.90;;;;;;5052992;28;20827;-63
2022/05/25 03:40:33;;;;;;;10.23;5.87;;;9.60;99.90;;;;;;5053074;28;20209;-63
2022/05/25 03:43:00;;;;;;;8.97;5.57;;;9.60;99.90;;;;;;5053271;28;20235;-64
2022/05/25 03:45:26;;;;;;;8.90;5.50;;;9.60;99.90;;;;;;5053368;28;20214;-63
2022/05/25 03:47:53;;;;;;;8.43;5.50;;;9.60;99.90;;;;;;5052575;28;20285;-63
2022/05/25 03:50:20;;;;;;;9.40;5.77;;;9.60;99.90;;;;;;5053243;28;20211;-63
2022/05/25 03:52:48;;;;;;;10.07;6.33;;;9.60;99.90;;;;;;5053036;28;20242;-64
2022/05/25 03:55:14;;;;;;;9.47;5.43;;;9.60;99.90;;;;;;5053124;28;20208;-63
2022/05/25 03:57:42;;;;;;;6.20;5.23;;;9.60;99.90;;;;;;5052085;28;20292;-63
2022/05/25 04:00:11;;;;;;;9.10;5.80;;;9.60;99.90;;;;;;5052967;28;20642;-63
2022/05/25 04:02:37;;;;;;;7.73;5.83;;;9.60;99.90;;;;;;5052602;28;20222;-64
2022/05/25 04:05:12;;;;;;;11.40;5.87;;;9.60;99.90;;;;;;5052504;28;20210;-63
2022/05/25 04:07:40;;;;;;;9.33;5.80;;;9.60;99.90;;;;;;5052652;28;20324;-63
2022/05/25 04:10:11;;;;;;;9.23;5.83;;;9.60;99.90;;;;;;5052630;28;20205;-63
2022/05/25 04:12:38;;;;;;;9.70;6.27;;;9.70;99.90;;;;;;5053073;28;20294;-64
2022/05/25 04:15:07;;;;;;;8.63;5.60;;;9.70;99.90;;;;;;5052596;28;20226;-64
2022/05/25 04:17:35;;;;;;;9.27;6.50;;;9.70;99.90;;;;;;5052404;28;20204;-63
2022/05/25 04:20:02;;;;;;;8.47;5.97;;;9.70;99.90;;;;;;5051289;28;20206;-63
2022/05/25 04:22:29;;;;;;;9.80;5.83;;;9.70;99.90;;;;;;5052568;28;20267;-63
2022/05/25 04:24:56;;;;;;;9.00;5.70;;;9.70;99.90;;;;;;5052206;28;20210;-63
2022/05/25 04:27:23;;;;;;;10.57;5.97;;;9.80;99.90;;;;;;5051789;28;20701;-63
2022/05/25 04:29:49;;;;;;;8.73;5.73;;;9.80;99.90;;;;;;5052453;28;20255;-64
2022/05/25 04:32:17;;;;;;;9.67;5.53;;;9.90;99.90;;;;;;5052342;28;20291;-64
2022/05/25 04:34:44;;;;;;;10.03;5.67;;;10.00;99.90;;;;;;5052435;28;20308;-64
2022/05/25 04:39:55;;;;;;;11.80;6.13;;;10.00;99.90;;;;;;5052360;28;20724;-64
2022/05/25 04:42:28;;;;;;;10.87;5.63;;;10.00;99.90;;;;;;5051865;28;20266;-64
2022/05/25 04:44:59;;;;;;;9.23;5.43;;;10.00;99.90;;;;;;5052178;28;20240;-64
2022/05/25 04:47:27;;;;;;;10.03;5.63;;;10.10;99.90;;;;;;5062333;28;20220;-64
2022/05/25 04:49:54;;;;;;;8.47;5.87;;;10.10;99.90;;;;;;5070990;28;20216;-65
2022/05/25 04:52:21;;;;;;;8.13;5.97;;;10.20;99.90;;;;;;5071887;28;20277;-64
2022/05/25 04:54:48;;;;;;;8.00;5.83;;;10.20;99.90;;;;;;5071731;28;20645;-65
2022/05/25 04:57:19;;;;;;;8.47;5.43;;;10.30;99.90;;;;;;5071410;28;20732;-65
2022/05/25 04:59:46;;;;;;;8.90;5.43;;;10.40;99.90;;;;;;5071607;28;20207;-65
2022/05/25 05:02:13;;;;;;;8.73;5.67;;;10.50;99.90;;;;;;5071657;28;20236;-64
2022/05/25 05:04:41;;;;;;;7.73;5.60;;;10.50;99.90;;;;;;5071703;28;20675;-64
2022/05/25 05:07:08;;;;;;;11.27;5.43;;;10.50;99.90;;;;;;5070959;28;20229;-65
2022/05/25 05:09:35;;;;;;;8.00;5.20;;;10.60;99.90;;;;;;5071722;28;20213;-65
2022/05/25 05:12:02;;;;;;;9.33;5.33;;;10.60;99.90;;;;;;5071250;28;20205;-65
2022/05/25 05:14:29;;;;;;;7.13;5.10;;;10.70;99.90;;;;;;5071795;28;20212;-65
2022/05/25 05:16:57;;;;;;;8.87;5.23;;;10.80;99.90;;;;;;5070867;28;20217;-64
2022/05/25 05:19:24;;;;;;;6.17;4.53;;;10.80;99.90;;;;;;5071812;28;20262;-65
2022/05/25 05:21:54;;;;;;;8.30;4.67;;;10.90;99.90;;;;;;5071821;28;20209;-65
2022/05/25 05:24:20;;;;;;;8.03;4.30;;;10.90;99.90;;;;;;5071322;28;20233;-64
2022/05/25 05:26:47;;;;;;;8.37;4.13;;;11.10;99.90;;;;;;5071199;28;20228;-65
2022/05/25 05:29:14;;;;;;;5.13;4.23;;;11.20;99.90;;;;;;5071046;28;20205;-65
2022/05/25 05:31:40;;;;;;;5.50;3.60;;;11.30;99.90;;;;;;5075176;28;20560;-65
2022/05/25 05:34:07;;;;;;;6.70;4.27;;;11.40;99.90;;;;;;5078074;28;20278;-64
2022/05/25 05:36:37;;;;;;;9.33;4.23;;;11.50;99.90;;;;;;5078174;28;20209;-64
2022/05/25 05:39:07;;;;;;;8.40;3.73;;;11.50;99.90;;;;;;5077885;28;20682;-66
2022/05/25 05:41:37;;;;;;;5.77;3.63;;;11.60;99.90;;;;;;5067881;28;20215;-65
2022/05/25 05:44:06;;;;;;;12.00;4.10;;;11.60;99.90;;;;;;5077126;28;20232;-67
2022/05/25 05:46:34;;;;;;;6.63;3.77;;;11.60;99.90;;;;;;5077128;28;20205;-65
2022/05/25 05:49:01;;;;;;;6.37;3.37;;;11.60;99.90;;;;;;5077691;28;20205;-66
2022/05/25 05:51:28;;;;;;;5.77;3.30;;;11.60;99.90;;;;;;5077910;28;20258;-67
2022/05/25 05:53:54;;;;;;;5.40;3.27;;;11.70;99.90;;;;;;5077966;28;20602;-66
2022/05/25 05:56:22;;;;;;;7.77;3.67;;;11.70;99.90;;;;;;5077391;28;20756;-66
2022/05/25 05:58:49;;;;;;;6.03;3.10;;;11.80;99.90;;;;;;5076800;28;20750;-66
2022/05/25 06:01:16;;;;;;;6.70;2.60;;;11.80;99.90;;;;;;5077092;28;20675;-67
2022/05/25 06:03:42;;;;;;;4.60;2.80;;;11.90;99.90;;;;;;5076719;28;20229;-65
2022/05/25 06:06:09;;;;;;;5.73;2.43;;;12.00;99.90;;;;;;5076879;28;20206;-67
2022/05/25 06:08:36;;;;;;;3.83;2.60;;;12.00;99.90;;;;;;5077030;28;20252;-67
2022/05/25 06:11:02;;;;;;;7.47;2.43;;;12.10;99.90;;;;;;5076731;28;20209;-65
2022/05/25 06:13:30;;;;;;;3.90;2.60;;;12.20;99.90;;;;;;5077176;28;20282;-65
2022/05/25 06:21:28;;;;;;;3.23;2.10;;;12.40;99.90;;;;;;5076559;28;20217;-66
2022/05/25 06:23:57;;;;;;;4.43;2.47;;;12.50;99.90;;;;;;5076678;28;20267;-64
2022/05/25 06:26:27;;;;;;;3.73;2.20;;;12.50;99.90;;;;;;5076863;28;20208;-66
2022/05/25 06:28:55;;;;;;;4.03;2.37;;;12.60;98.10;;;;;;5076564;28;20235;-65
2022/05/25 06:31:22;;;;;;;4.40;2.27;;;12.60;92.60;;;;;;5077556;28;20205;-67
2022/05/25 06:33:48;;;;;;;3.13;2.23;;;12.60;96.20;;;;;;5076725;28;20261;-64
2022/05/25 06:36:17;;;;;;;6.07;2.27;;;12.60;94.60;;;;;;5077065;28;20712;-64
2022/05/25 06:38:44;;;;;;;3.30;2.10;;;12.70;84.70;;;;;;5077126;28;20201;-64
2022/05/25 06:41:11;;;;;;;3.73;2.13;;;12.80;71.50;;;;;;5077073;28;20280;-64
2022/05/25 06:43:38;;;;;;;2.87;1.50;;;12.90;73.10;;;;;;5073298;28;20268;-62
2022/05/25 06:46:06;;;;;;;2.43;1.83;;;12.90;54.60;;;;;;5073020;28;20208;-63
2022/05/25 06:48:33;;;;;;;5.30;2.00;;;13.00;52.60;;;;;;5073549;28;20246;-63
2022/05/25 06:51:10;;;;;;;4.33;2.33;;;13.10;41.70;;;;;;5073410;28;20210;-63
2022/05/25 06:53:37;;;;;;;6.00;2.30;;;13.20;39.30;;;;;;5073559;28;20311;-63
2022/05/25 06:56:04;;;;;;;7.13;2.13;;;13.30;16.90;;;;;;5073601;28;20204;-63
2022/05/25 06:58:31;;;;;;;3.67;1.83;;;13.30;1.00;;;;;;5073236;28;20736;-63
2022/05/25 07:00:58;;;;;;;3.57;2.03;;;13.40;4.10;;;;;;5073273;28;20208;-63
2022/05/25 07:03:26;;;;;;;6.40;1.63;;;13.40;1.00;;;;;;5072713;28;20319;-63
2022/05/25 07:05:53;;;;;;;3.80;1.53;;;13.40;1.20;;;;;;5073510;28;20258;-62
2022/05/25 07:08:19;;;;;;;6.40;1.80;;;13.60;1.00;;;;;;5073333;28;20323;-62
2022/05/25 07:10:46;;;;;;;4.20;2.13;;;13.60;1.00;;;;;;5073089;28;20235;-61
2022/05/25 07:13:13;;;;;;;3.07;1.70;;;13.70;1.00;;;;;;5073116;28;20228;-62
2022/05/25 07:15:40;;;;;;;2.70;1.43;;;13.80;1.00;;;;;;5072645;28;20220;-63
2022/05/25 07:18:07;;;;;;;5.33;1.47;;;13.90;1.00;;;;;;5073033;28;20212;-63
2022/05/25 07:20:35;;;;;;;3.77;1.30;;;13.90;1.00;;;;;;5072773;28;20205;-62
2022/05/25 07:23:02;;;;;;;2.90;1.47;;;14.00;1.00;;;;;;5073225;28;20229;-63
2022/05/25 07:25:28;;;;;;;2.07;1.30;;;14.20;1.00;;;;;;5076795;28;20209;-63
2022/05/25 07:27:55;;;;;;;2.70;1.30;;;14.30;1.00;;;;;;5077130;28;20289;-63
2022/05/25 07:30:22;;;;;;;1.77;1.10;;;14.40;99.90;;;;;;5073349;28;20285;-63
2022/05/25 07:32:49;;;;;;;6.93;1.60;;;14.60;99.90;;;;;;5071921;28;20723;-64
2022/05/25 07:35:18;;;;;;;2.13;1.40;;;14.70;99.90;;;;;;5072786;28;20205;-63
2022/05/25 07:37:50;;;;;;;1.60;1.30;;;14.90;1.00;;;;;;5072479;28;20205;-63
2022/05/25 07:40:23;;;;;;;2.70;1.40;;;14.90;1.00;;;;;;5072478;28;20240;-63
2022/05/25 07:42:55;;;;;;;2.70;1.20;;;15.00;1.00;;;;;;5072199;28;20225;-62
2022/05/25 07:45:22;;;;;;;2.67;1.20;;;15.00;99.90;;;;;;5072550;28;20258;-63
2022/05/25 07:47:51;;;;;;;5.30;1.60;;;15.00;1.00;;;;;;5072345;28;20241;-62
2022/05/25 07:50:18;;;;;;;3.30;1.50;;;15.20;99.90;;;;;;5072253;28;20200;-62
2022/05/25 07:52:46;;;;;;;6.13;1.43;;;15.30;99.90;;;;;;5072407;28;20275;-62
2022/05/25 07:55:13;;;;;;;2.23;1.07;;;15.60;1.00;;;;;;5072423;28;20213;-62
2022/05/25 07:57:40;;;;;;;3.90;1.47;;;15.70;1.00;;;;;;5071764;28;20209;-63
2022/05/25 08:00:08;;;;;;;3.37;1.43;;;15.80;1.00;;;;;;5072561;28;20205;-62
2022/05/25 08:08:13;;;;;;;3.10;1.30;;;16.00;1.00;;;;;;5071950;28;20232;-65
2022/05/25 08:10:42;;;;;;;2.03;1.00;;;15.90;1.00;;;;;;5072634;28;20213;-64
2022/05/25 08:13:09;;;;;;;3.37;1.10;;;16.00;1.00;;;;;;5071928;28;20605;-65
2022/05/25 08:15:42;;;;;;;3.33;1.43;;;16.10;1.00;;;;;;5072136;28;20270;-65
2022/05/25 08:18:09;;;;;;;1.40;0.90;;;16.00;1.00;;;;;;5071795;28;20201;-65
2022/05/25 08:20:36;;;;;;;2.50;1.03;;;16.00;1.00;;;;;;5071775;28;20208;-64
2022/05/25 08:23:05;;;;;;;5.50;1.13;;;16.00;1.00;;;;;;5071680;28;20255;-65
2022/05/25 08:25:34;;;;;;;1.80;1.07;;;16.10;1.00;;;;;;5071797;28;20208;-63
2022/05/25 08:28:00;;;;;;;1.47;0.80;;;16.10;1.00;;;;;;5071725;28;20229;-62
2022/05/25 08:30:28;;;;;;;3.20;1.20;;;16.30;1.00;;;;;;5072227;28;20217;-64
2022/05/25 08:32:54;;;;;;;3.20;1.00;;;16.50;1.00;;;;;;5070918;28;20277;-63
2022/05/25 08:35:21;;;;;;;6.67;1.87;;;16.60;99.90;;;;;;5072060;28;20219;-62
2022/05/25 08:37:48;;;;;;;2.83;1.10;;;16.70;1.00;;;;;;5071416;28;20201;-63
2022/05/25 08:40:19;;;;;;;3.67;1.10;;;16.70;99.90;;;;;;5072013;28;20209;-63
2022/05/25 08:42:55;;;;;;;1.73;1.20;;;16.70;99.90;;;;;;5071136;28;20229;-63
2022/05/25 08:45:25;;;;;;;2.13;1.20;;;16.80;99.90;;;;;;5071374;28;20216;-64
2022/05/25 08:47:56;;;;;;;3.80;0.90;;;17.00;99.90;;;;;;5071578;28;20231;-63
2022/05/25 08:50:24;;;;;;;1.47;0.80;;;17.00;99.90;;;;;;5071503;28;20209;-66
2022/05/25 08:52:54;;;;;;;3.70;1.20;;;17.00;99.90;;;;;;5071390;28;20225;-64
2022/05/25 08:55:33;;;;;;;1.70;0.90;;;16.70;99.90;;;;;;5071524;28;20623;-62
2022/05/25 08:58:02;;;;;;;1.67;0.70;;;16.80;99.90;;;;;;5071095;28;20296;-63
2022/05/25 09:00:29;;;;;;;4.07;0.87;;;17.10;99.90;;;;;;5071532;28;20765;-65
2022/05/25 09:03:04;;;;;;;2.20;0.70;;;17.30;99.90;;;;;;5071019;28;20599;-65
2022/05/25 09:05:35;;;;;;;3.93;0.90;;;17.30;99.90;;;;;;5071065;28;20294;-64
2022/05/25 09:08:13;;;;;;;0.53;0.40;;;17.50;99.90;;;;;;5070740;28;20573;-64
2022/05/25 09:10:45;;;;;;;1.30;0.60;;;17.60;99.90;;;;;;5071743;28;20299;-65
2022/05/25 09:13:18;;;;;;;2.87;0.97;;;17.70;99.90;;;;;;5070749;28;20225;-63
2022/05/25 09:18:33;;;;;;;2.73;0.50;;;17.80;99.90;;;;;;5071027;28;20193;-63
2022/05/25 09:21:04;;;;;;;3.13;0.50;;;17.80;99.90;;;;;;5071558;28;20213;-64
2022/05/25 09:23:31;;;;;;;1.90;0.63;;;17.90;99.90;;;;;;5070707;28;20236;-65
2022/05/25 09:25:59;;;;;;;1.47;0.40;;;18.10;99.90;;;;;;5070769;28;20209;-63
2022/05/25 09:28:31;;;;;;;1.37;0.50;;;18.10;99.90;;;;;;5071398;28;20228;-63
2022/05/25 09:31:02;;;;;;;1.67;0.40;;;18.30;99.90;;;;;;5070928;28;20209;-63
2022/05/25 09:33:36;;;;;;;1.33;0.50;;;18.40;99.90;;;;;;5070937;28;20319;-64
2022/05/25 09:36:08;;;;;;;1.40;0.60;;;18.50;99.90;;;;;;5070601;28;20204;-66
2022/05/25 09:38:43;;;;;;;1.53;0.60;;;18.40;99.90;;;;;;5070975;28;20618;-64
2022/05/25 09:41:12;;;;;;;2.10;0.70;;;18.20;99.90;;;;;;5070779;28;20212;-62
2022/05/25 09:43:41;;;;;;;1.63;0.40;;;18.30;99.90;;;;;;5069993;28;20239;-63
2022/05/25 09:46:12;;;;;;;0.77;0.40;;;18.40;99.90;;;;;;5070652;28;20208;-62
2022/05/25 09:48:49;;;;;;;0.87;0.40;;;18.40;99.90;;;;;;5070748;28;20225;-65
2022/05/25 09:51:23;;;;;;;1.47;0.60;;;18.40;99.90;;;;;;5070978;28;20258;-65
2022/05/25 09:53:52;;;;;;;2.03;0.30;;;18.30;99.90;;;;;;5070357;28;20231;-65
2022/05/25 09:56:22;;;;;;;0.70;0.50;;;18.30;99.90;;;;;;5070524;28;20275;-65
2022/05/25 09:58:55;;;;;;;6.93;1.33;;;18.30;99.90;;;;;;5071133;28;20204;-64
2022/05/25 10:01:25;;;;;;;1.70;0.70;;;18.60;99.90;;;;;;5070347;28;20266;-64
2022/05/25 10:03:53;;;;;;;7.17;0.63;;;18.70;99.90;;;;;;5070543;28;20224;-63
2022/05/25 10:06:24;;;;;;;2.90;0.60;;;18.60;99.90;;;;;;5070244;28;20212;-62
2022/05/25 10:08:53;;;;;;;1.53;0.30;;;18.60;99.90;;;;;;5070588;28;20339;-64
2022/05/25 10:11:33;;;;;;;1.60;0.57;;;18.60;99.90;;;;;;5070772;28;20201;-63
2022/05/25 10:16:55;;;;;;;3.07;0.60;;;18.40;99.90;;;;;;5108622;27;20548;-62
2022/05/25 10:19:23;;;;;;;1.87;0.60;;;18.80;99.90;;;;;;5108685;28;20239;-61
2022/05/25 10:21:52;;;;;;;1.90;0.67;;;19.00;99.90;;;;;;5108123;28;20203;-60
2022/05/25 10:24:24;;;;;;;2.20;0.50;;;18.90;99.90;;;;;;5088206;28;20208;-60
2022/05/25 10:26:54;;;;;;;2.20;0.60;;;18.90;99.90;;;;;;5088209;28;20690;-61
2022/05/25 10:37:58;;;;;;;2.20;0.67;;;18.90;99.90;;;;;;5087956;28;20203;-62
2022/05/25 10:40:25;;;;;;;4.60;0.50;;;18.80;99.90;;;;;;5088336;28;20697;-65
2022/05/25 10:42:58;;;;;;;0.50;0.50;;;19.10;99.90;;;;;;5087632;28;20297;-65
2022/05/25 10:45:32;;;;;;;2.30;0.50;;;19.30;99.90;;;;;;5088154;28;20212;-64
2022/05/25 10:48:09;;;;;;;0.60;0.40;;;19.20;99.90;;;;;;5087563;28;20235;-63
2022/05/25 10:50:42;;;;;;;0.90;0.50;;;19.30;99.90;;;;;;5088462;28;20211;-62
2022/05/25 10:53:16;;;;;;;0.40;0.40;;;18.70;99.90;;;;;;5087512;28;20256;-64
2022/05/25 10:55:50;;;;;;;0.33;0.30;;;18.70;99.90;;;;;;5087988;28;20223;-61
2022/05/25 10:58:37;;;;;;;1.03;0.50;;;19.00;99.90;;;;;;5087639;28;20196;-63
2022/05/25 11:01:21;;;;;;;1.13;0.70;;;19.20;99.90;;;;;;5087803;28;20604;-60
2022/05/25 11:04:29;;;;;;;2.57;0.50;;;19.00;99.90;;;;;;5087511;28;20717;-62
2022/05/25 11:07:07;;;;;;;1.37;0.70;;;18.80;99.90;;;;;;5081743;28;20619;-61
2022/05/25 11:09:45;;;;;;;0.83;0.60;;;18.80;99.90;;;;;;5088677;28;20729;-61
2022/05/25 11:12:22;;;;;;;1.00;0.50;;;18.60;99.90;;;;;;5087639;28;20232;-61
2022/05/25 11:15:02;;;;;;;0.90;0.47;;;18.80;99.90;;;;;;5087643;28;20247;-62
2022/05/25 11:17:46;;;;;;;0.93;0.63;;;19.20;99.90;;;;;;5086851;28;20207;-63
2022/05/25 11:20:30;;;;;;;1.23;0.50;;;19.50;99.90;;;;;;5087763;28;20617;-64
2022/05/25 11:23:28;;;;;;;0.97;0.50;;;19.70;99.90;;;;;;5086887;28;20305;-64
2022/05/25 11:26:08;;;;;;;0.67;0.40;;;19.90;99.90;;;;;;5086746;28;20299;-62
2022/05/25 11:28:49;;;;;;;2.37;0.50;;;19.60;99.90;;;;;;5073618;28;20209;-63
2022/05/25 11:31:29;;;;;;;2.20;0.50;;;19.50;99.90;;;;;;5073724;28;20201;-60
2022/05/25 11:34:10;;;;;;;1.67;0.47;;;19.60;99.90;;;;;;5073617;28;20258;-62
2022/05/25 11:36:57;;;;;;;0.50;0.43;;;19.80;99.90;;;;;;5073160;28;20225;-61
2022/05/25 11:39:33;;;;;;;0.93;0.50;;;19.70;99.90;;;;;;5073565;28;20209;-60
2022/05/25 11:42:07;;;;;;;1.50;0.60;;;19.70;99.90;;;;;;5073151;28;20212;-61
2022/05/25 11:44:52;;;;;;;2.53;0.40;;;19.50;99.90;;;;;;5059925;28;20220;-64
2022/05/25 11:47:35;;;;;;;0.83;0.30;;;19.30;99.90;;;;;;5070909;28;20269;-63
2022/05/25 11:50:25;;;;;;;2.07;0.37;;;19.40;99.90;;;;;;5077790;28;20205;-63
2022/05/25 11:53:15;;;;;;;1.23;0.50;;;19.70;99.90;;;;;;5072714;28;20298;-64
2022/05/25 11:55:50;;;;;;;1.33;0.37;;;20.10;99.90;;;;;;5073406;28;20221;-64
2022/05/25 11:58:31;;;;;;;4.17;0.57;;;20.10;99.90;;;;;;5073051;28;20208;-62
2022/05/25 12:01:03;;;;;;;1.63;0.50;;;19.70;99.90;;;;;;5073248;28;20201;-62
2022/05/25 12:04:02;;;;;;;0.20;0.20;;;19.80;99.90;;;;;;5073027;28;20221;-62
2022/05/25 12:07:00;;;;;;;2.80;0.37;;;19.90;99.90;;;;;;5072773;28;20621;-62
2022/05/25 12:09:59;;;;;;;1.40;0.43;;;19.80;99.90;;;;;;5072880;28;20299;-65
2022/05/25 12:12:30;;;;;;;1.80;0.40;;;19.80;99.90;;;;;;5072826;28;20236;-61
2022/05/25 12:15:06;;;;;;;1.17;0.53;;;19.70;99.90;;;;;;5073095;28;20233;-65
2022/05/25 12:17:46;;;;;;;1.07;0.40;;;19.90;99.90;;;;;;5072422;28;20208;-63
2022/05/25 12:20:21;;;;;;;2.40;0.40;;;20.10;99.90;;;;;;5073160;28;20215;-62
2022/05/25 12:22:53;;;;;;;3.50;0.50;;;19.40;99.90;;;;;;5072466;28;20233;-61
2022/05/25 12:25:22;;;;;;;0.40;0.40;;;19.40;99.90;;;;;;5072841;28;20197;-62
2022/05/25 12:27:52;;;;;;;3.87;0.40;;;19.60;99.90;;;;;;5072469;28;20266;-62
2022/05/25 12:30:32;;;;;;;2.63;0.47;;;19.60;99.90;;;;;;5072558;28;20679;-62
2022/05/25 12:33:01;;;;;;;1.03;0.30;;;19.60;99.90;;;;;;5072535;28;20311;-62
2022/05/25 12:35:31;;;;;;;2.87;0.40;;;19.40;99.90;;;;;;5072234;28;20312;-62
2022/05/25 12:37:59;;;;;;;0.53;0.37;;;19.50;99.90;;;;;;5071981;28;20296;-61
2022/05/25 12:40:46;;;;;;;0.70;0.40;;;19.60;99.90;;;;;;5072124;28;20286;-61
2022/05/25 12:48:30;;;;;;;4.00;0.40;;;19.70;99.90;;;;;;5072488;28;20282;-59
2022/05/25 12:49:44;;;;;;;2.73;0.37;;;19.80;99.90;;;;;;5030176;28;20206;-58
2022/05/25 12:52:43;;;;;;;0.87;0.50;;;19.80;99.90;;;;;;5061189;28;20221;-59
2022/05/25 12:55:32;;;;;;;1.27;0.47;;;19.30;99.90;;;;;;5072028;28;20244;-58
2022/05/25 12:58:01;;;;;;;1.20;0.60;;;18.90;99.90;;;;;;5071790;28;20237;-58
2022/05/25 13:01:01;;;;;;;1.87;0.37;;;18.80;99.90;;;;;;5072165;28;20200;-59
2022/05/25 13:03:43;;;;;;;0.77;0.63;;;19.00;99.90;;;;;;5071387;28;20221;-58
2022/05/25 13:06:11;;;;;;;3.17;0.67;;;19.60;99.90;;;;;;5071552;28;20823;-59
2022/05/25 13:09:08;;;;;;;2.23;0.70;;;19.90;99.90;;;;;;5072113;28;20205;-54
2022/05/25 13:11:44;;;;;;;1.03;0.50;;;20.00;99.90;;;;;;5071400;28;20209;-58
2022/05/25 13:14:47;;;;;;;1.23;0.50;;;20.10;99.90;;;;;;5071728;28;20228;-59
2022/05/25 13:17:47;;;;;;;1.80;0.53;;;20.00;99.90;;;;;;5063899;28;20262;-59
2022/05/25 13:20:17;;;;;;;1.57;0.40;;;20.00;99.90;;;;;;5071595;28;20208;-58
2022/05/25 13:22:44;;;;;;;0.80;0.40;;;19.90;99.90;;;;;;5071516;28;20225;-59
2022/05/25 13:25:27;;;;;;;1.30;0.40;;;19.50;99.90;;;;;;5072339;28;20205;-58
2022/05/25 13:28:11;;;;;;;0.93;0.50;;;19.40;99.90;;;;;;5071174;28;20227;-59
2022/05/25 13:30:50;;;;;;;2.70;0.60;;;19.60;99.90;;;;;;5071650;28;20208;-58
2022/05/25 13:33:26;;;;;;;2.27;0.60;;;19.40;99.90;;;;;;5071225;28;20278;-59
2022/05/25 13:35:56;;;;;;;2.93;0.40;;;19.20;99.90;;;;;;5071031;28;20220;-58
2022/05/25 13:38:31;;;;;;;1.93;0.60;;;19.20;99.90;;;;;;5071702;28;20645;-59
2022/05/25 13:41:04;;;;;;;0.50;0.30;;;19.30;99.90;;;;;;5071068;28;20209;-59
2022/05/25 13:43:43;;;;;;;0.50;0.40;;;19.30;99.90;;;;;;5071010;28;20228;-59
2022/05/25 13:46:13;;;;;;;1.43;0.77;;;19.50;99.90;;;;;;5070672;28;20208;-57
2022/05/25 13:48:52;;;;;;;4.27;0.50;;;19.60;99.90;;;;;;5071627;28;20576;-59
2022/05/25 13:51:20;;;;;;;1.17;0.43;;;20.00;99.90;;;;;;5070622;28;20321;-59